Time;durP1;ratioP1;P1;durP2;ratioP2;P2;SDS_P1;SDS_P2;PMS_P1;PMS_P2;Temp;Humidity;BMP_temperature;BMP_pressure;BME280_temperature;BME280_humidity;BME280_pressure;Samples;Min_cycle;Max_cycle;Signal;HPM_P1;HPM_P2
2021/12/03 00:01:33;;;;;;;5.05;4.60;;;30.90;99.90;;;;;;5032231;28;20082;-74
2021/12/03 00:04:01;;;;;;;5.50;4.78;;;30.90;99.90;;;;;;5031514;28;20390;-74
2021/12/03 00:06:28;;;;;;;5.53;4.93;;;30.90;99.90;;;;;;5033141;28;20025;-74
2021/12/03 00:08:56;;;;;;;5.20;4.70;;;31.20;99.90;;;;;;5033605;28;20076;-74
2021/12/03 00:11:24;;;;;;;5.82;4.55;;;31.50;99.90;;;;;;5033865;28;20029;-73
2021/12/03 00:13:51;;;;;;;4.80;4.40;;;31.50;99.90;;;;;;5032030;28;20025;-73
2021/12/03 00:16:19;;;;;;;7.35;4.63;;;31.50;99.90;;;;;;5032073;28;20025;-74
2021/12/03 00:18:46;;;;;;;4.65;4.00;;;31.60;99.90;;;;;;5033290;28;20093;-73
2021/12/03 00:21:14;;;;;;;5.03;4.20;;;31.60;99.90;;;;;;5031991;28;20021;-73
2021/12/03 00:24:00;;;;;;;6.63;3.63;;;31.20;99.90;;;;;;5033486;28;20033;-73
2021/12/03 00:26:42;;;;;;;4.85;4.10;;;31.30;99.90;;;;;;5033252;28;20390;-74
2021/12/03 00:29:10;;;;;;;4.75;4.43;;;31.00;99.90;;;;;;5033609;28;20018;-74
2021/12/03 00:31:38;;;;;;;5.07;4.63;;;30.60;99.90;;;;;;5032568;28;20028;-75
2021/12/03 00:34:05;;;;;;;5.03;4.60;;;30.50;99.90;;;;;;5032119;28;20112;-75
2021/12/03 00:36:32;;;;;;;7.88;4.68;;;30.30;99.90;;;;;;5032166;28;20449;-74
2021/12/03 00:39:00;;;;;;;8.27;7.43;;;30.20;99.90;;;;;;5033266;28;20036;-73
2021/12/03 00:41:32;;;;;;;7.93;7.13;;;30.60;99.90;;;;;;5032112;28;20033;-73
2021/12/03 00:44:00;;;;;;;6.88;6.20;;;30.60;99.90;;;;;;5031774;28;20128;-73
2021/12/03 00:46:27;;;;;;;7.03;6.15;;;30.00;99.90;;;;;;5031380;28;20582;-72
2021/12/03 00:48:55;;;;;;;7.45;6.25;;;29.80;99.90;;;;;;5033140;28;20032;-73
2021/12/03 00:51:24;;;;;;;6.63;5.53;;;29.80;99.90;;;;;;5031646;28;20048;-74
2021/12/03 00:53:52;;;;;;;6.20;4.90;;;30.20;99.90;;;;;;5033368;28;20021;-74
2021/12/03 00:56:20;;;;;;;7.88;5.88;;;29.40;99.90;;;;;;5033333;28;20056;-74
2021/12/03 00:58:48;;;;;;;5.43;4.95;;;29.20;99.90;;;;;;5033654;28;20025;-73
2021/12/03 01:01:16;;;;;;;8.13;5.32;;;29.20;99.90;;;;;;5032980;28;20561;-75
2021/12/03 01:03:44;;;;;;;8.25;7.45;;;29.70;99.90;;;;;;5031748;28;20377;-74
2021/12/03 01:06:12;;;;;;;9.70;7.15;;;30.00;99.90;;;;;;5033207;28;20028;-74
2021/12/03 01:08:39;;;;;;;6.32;4.93;;;29.80;99.90;;;;;;5033365;28;20482;-74
2021/12/03 01:11:09;;;;;;;7.38;4.78;;;29.40;99.90;;;;;;5031575;28;20021;-73
2021/12/03 01:13:38;;;;;;;9.50;5.20;;;29.30;99.90;;;;;;5032929;28;20022;-74
2021/12/03 01:16:06;;;;;;;9.90;6.78;;;29.30;99.90;;;;;;5034774;28;20021;-74
2021/12/03 01:18:34;;;;;;;9.68;6.57;;;29.40;99.90;;;;;;5036876;28;20021;-74
2021/12/03 01:21:02;;;;;;;9.82;7.43;;;29.70;99.90;;;;;;5035489;28;20026;-73
2021/12/03 01:23:31;;;;;;;10.55;6.03;;;29.70;99.90;;;;;;5036918;28;20029;-71
2021/12/03 01:25:58;;;;;;;8.18;6.63;;;29.80;99.90;;;;;;5035136;28;20033;-71
2021/12/03 01:28:27;;;;;;;8.45;5.80;;;29.70;99.90;;;;;;5036530;28;20028;-73
2021/12/03 01:30:56;;;;;;;10.88;6.22;;;29.30;99.90;;;;;;5036505;28;20030;-71
2021/12/03 01:33:23;;;;;;;9.25;6.35;;;29.10;99.90;;;;;;5036476;28;20013;-72
2021/12/03 01:35:51;;;;;;;10.13;6.60;;;29.10;99.90;;;;;;5036112;28;20029;-73
2021/12/03 01:38:19;;;;;;;13.75;7.03;;;28.90;99.90;;;;;;5034672;28;20021;-73
2021/12/03 01:40:46;;;;;;;12.00;7.30;;;28.90;99.90;;;;;;5035036;28;20615;-73
2021/12/03 01:43:20;;;;;;;8.23;6.70;;;28.70;99.90;;;;;;5035825;28;20084;-74
2021/12/03 01:45:48;;;;;;;9.02;7.07;;;28.70;99.90;;;;;;5034892;28;20029;-73
2021/12/03 01:48:15;;;;;;;11.35;7.70;;;29.40;99.90;;;;;;5034740;28;20036;-73
2021/12/03 01:50:45;;;;;;;13.98;8.30;;;29.40;99.90;;;;;;5036102;28;20390;-73
2021/12/03 01:53:15;;;;;;;10.17;7.83;;;29.20;99.90;;;;;;5034747;28;20068;-74
2021/12/03 01:55:43;;;;;;;;;;;29.10;99.90;;;;;;5036518;28;20262;-73
2021/12/03 01:58:12;;;;;;;12.93;8.00;;;28.50;99.90;;;;;;5034428;28;20362;-72
2021/12/03 02:00:51;;;;;;;13.20;7.50;;;28.70;99.90;;;;;;5035668;28;20029;-72
2021/12/03 02:03:21;;;;;;;13.80;8.87;;;28.30;99.90;;;;;;5035753;28;20047;-72
2021/12/03 02:05:48;;;;;;;16.10;8.70;;;28.10;99.90;;;;;;5035486;28;20101;-71
2021/12/03 02:08:16;;;;;;;15.45;8.95;;;28.30;99.90;;;;;;5034340;28;20037;-72
2021/12/03 02:10:45;;;;;;;17.35;8.60;;;28.80;99.90;;;;;;5034639;28;20028;-74
2021/12/03 02:13:13;;;;;;;19.35;9.20;;;28.50;99.90;;;;;;5034423;28;20086;-73
2021/12/03 02:15:42;;;;;;;16.63;8.77;;;28.80;99.90;;;;;;5034101;28;20021;-73
2021/12/03 02:18:11;;;;;;;16.47;9.07;;;29.30;99.90;;;;;;5035131;28;20045;-73
2021/12/03 02:20:47;;;;;;;15.65;9.25;;;29.50;99.90;;;;;;5033794;28;20617;-73
2021/12/03 02:23:15;;;;;;;18.75;9.63;;;29.80;99.90;;;;;;5035126;28;20025;-73
2021/12/03 02:25:44;;;;;;;17.65;10.25;;;29.40;99.90;;;;;;5033750;28;20040;-74
2021/12/03 02:28:13;;;;;;;12.98;9.70;;;29.20;99.90;;;;;;5033367;28;20021;-73
2021/12/03 02:30:41;;;;;;;16.63;10.63;;;29.30;99.90;;;;;;5034323;28;20505;-74
2021/12/03 02:33:09;;;;;;;15.65;11.73;;;29.70;99.90;;;;;;5035274;28;20018;-72
2021/12/03 02:35:40;;;;;;;17.00;11.65;;;29.50;99.90;;;;;;5033783;28;20033;-72
2021/12/03 02:38:09;;;;;;;15.30;11.10;;;29.20;99.90;;;;;;5035125;28;20045;-73
2021/12/03 02:40:37;;;;;;;18.20;11.75;;;29.10;99.90;;;;;;5033956;28;20458;-72
2021/12/03 02:43:05;;;;;;;15.50;11.23;;;28.90;99.90;;;;;;5033271;28;20140;-72
2021/12/03 02:45:33;;;;;;;16.73;11.90;;;29.50;99.90;;;;;;5034775;28;20029;-74
2021/12/03 02:48:01;;;;;;;17.58;11.68;;;29.50;99.90;;;;;;5034863;28;20425;-72
2021/12/03 02:50:29;;;;;;;16.83;11.40;;;29.20;99.90;;;;;;5034714;28;20466;-73
2021/12/03 02:52:57;;;;;;;20.13;11.93;;;29.10;99.90;;;;;;5033648;28;20056;-72
2021/12/03 02:55:25;;;;;;;18.67;10.57;;;29.60;99.90;;;;;;5034482;28;20044;-73
2021/12/03 02:57:52;;;;;;;16.50;11.98;;;29.80;99.90;;;;;;5034283;28;20029;-72
2021/12/03 03:00:22;;;;;;;16.67;13.20;;;29.90;99.90;;;;;;5034644;28;20382;-72
2021/12/03 03:02:49;;;;;;;16.27;11.57;;;28.90;99.90;;;;;;5034807;28;20028;-72
2021/12/03 03:05:19;;;;;;;17.80;12.10;;;28.60;99.90;;;;;;5034335;28;20501;-72
2021/12/03 03:07:47;;;;;;;19.60;12.63;;;28.40;99.90;;;;;;5032765;28;20446;-73
2021/12/03 03:10:18;;;;;;;19.70;13.45;;;28.60;99.90;;;;;;5034109;28;20029;-73
2021/12/03 03:12:46;;;;;;;20.08;14.63;;;28.20;99.90;;;;;;5034224;28;20474;-73
2021/12/03 03:15:16;;;;;;;19.80;13.50;;;28.20;99.90;;;;;;5034093;28;20025;-73
2021/12/03 03:17:43;;;;;;;;;;;28.20;99.90;;;;;;5033393;28;20022;-73
2021/12/03 03:20:12;;;;;;;22.50;14.70;;;28.10;99.90;;;;;;5034306;28;19905;-72
2021/12/03 03:22:40;;;;;;;24.23;15.65;;;27.80;99.90;;;;;;5034305;28;20021;-72
2021/12/03 03:25:11;;;;;;;21.80;14.63;;;27.50;99.90;;;;;;5033063;28;20029;-72
2021/12/03 03:27:39;;;;;;;23.10;14.93;;;27.60;99.90;;;;;;5032888;28;20390;-73
2021/12/03 03:30:11;;;;;;;23.65;15.18;;;27.60;99.90;;;;;;5033892;28;20029;-73
2021/12/03 03:32:39;;;;;;;23.63;14.25;;;27.50;99.90;;;;;;5033107;28;20479;-73
2021/12/03 03:35:07;;;;;;;24.63;15.38;;;27.70;99.90;;;;;;5032758;28;20542;-73
2021/12/03 03:37:35;;;;;;;28.00;15.02;;;27.30;99.90;;;;;;5033798;28;20433;-74
2021/12/03 03:40:03;;;;;;;23.00;14.13;;;27.20;99.90;;;;;;5032991;28;20108;-75
2021/12/03 03:42:31;;;;;;;27.67;14.88;;;26.90;99.90;;;;;;5034066;28;20123;-72
2021/12/03 03:44:58;;;;;;;23.58;15.02;;;26.70;99.90;;;;;;5034044;28;20017;-72
2021/12/03 03:47:25;;;;;;;28.40;16.48;;;26.60;99.90;;;;;;5033676;28;20021;-74
2021/12/03 03:49:53;;;;;;;24.33;15.27;;;26.40;99.90;;;;;;5033351;28;20108;-74
2021/12/03 03:52:21;;;;;;;25.10;17.60;;;26.70;99.90;;;;;;5033724;28;20014;-74
2021/12/03 03:54:49;;;;;;;26.65;17.85;;;26.80;99.90;;;;;;5034125;28;20014;-74
2021/12/03 03:57:16;;;;;;;26.08;16.65;;;26.60;99.90;;;;;;5033651;28;20033;-75
2021/12/03 03:59:44;;;;;;;23.35;16.85;;;26.30;99.90;;;;;;5033642;28;20029;-74
2021/12/03 04:02:11;;;;;;;24.92;17.92;;;26.00;99.90;;;;;;5033766;28;20386;-74
2021/12/03 04:04:38;;;;;;;28.30;18.08;;;26.20;99.90;;;;;;5033713;28;20025;-75
2021/12/03 04:07:06;;;;;;;23.25;16.35;;;26.10;99.90;;;;;;5032558;28;20029;-74
2021/12/03 04:09:33;;;;;;;29.95;17.08;;;26.00;99.90;;;;;;5032507;28;20034;-74
2021/12/03 04:12:01;;;;;;;27.85;16.63;;;25.50;99.90;;;;;;5032031;28;20135;-74
2021/12/03 04:14:28;;;;;;;27.70;17.63;;;25.40;99.90;;;;;;5033606;28;20018;-74
2021/12/03 04:16:55;;;;;;;27.40;16.70;;;25.50;99.90;;;;;;5032201;28;20052;-73
2021/12/03 04:19:23;;;;;;;26.27;17.13;;;25.00;99.90;;;;;;5031846;28;20080;-73
2021/12/03 04:21:50;;;;;;;26.23;17.10;;;24.70;99.90;;;;;;5032309;28;20105;-73
2021/12/03 04:24:17;;;;;;;28.45;16.80;;;24.50;99.90;;;;;;5033188;28;20080;-72
2021/12/03 04:26:45;;;;;;;26.23;17.27;;;24.10;99.90;;;;;;5032156;28;20040;-74
2021/12/03 04:29:12;;;;;;;29.30;17.17;;;24.10;99.90;;;;;;5033646;28;20022;-73
2021/12/03 04:31:39;;;;;;;27.02;17.60;;;23.80;99.90;;;;;;5033572;28;20025;-74
2021/12/03 04:34:07;;;;;;;29.95;18.67;;;23.40;99.90;;;;;;5032375;28;20112;-74
2021/12/03 04:36:34;;;;;;;31.00;20.30;;;23.40;99.90;;;;;;5034494;28;20033;-73
2021/12/03 04:39:03;;;;;;;26.92;19.25;;;23.30;99.90;;;;;;5032432;28;20029;-73
2021/12/03 04:41:32;;;;;;;28.45;19.52;;;23.20;99.90;;;;;;5032701;28;20395;-72
2021/12/03 04:43:59;;;;;;;29.60;19.30;;;23.30;99.90;;;;;;5033348;28;20412;-73
2021/12/03 04:46:27;;;;;;;34.13;20.25;;;23.30;99.90;;;;;;5032992;28;20036;-72
2021/12/03 04:48:54;;;;;;;30.80;20.17;;;23.20;99.90;;;;;;5033407;28;20037;-70
2021/12/03 04:51:21;;;;;;;30.80;19.25;;;23.00;99.90;;;;;;5035729;28;20105;-72
2021/12/03 04:53:49;;;;;;;30.23;19.63;;;22.90;99.90;;;;;;5037360;28;20026;-72
2021/12/03 04:56:17;;;;;;;29.38;20.33;;;22.70;99.90;;;;;;5036943;28;20029;-74
2021/12/03 04:58:44;;;;;;;27.75;22.10;;;22.40;99.90;;;;;;5035970;28;20551;-74
2021/12/03 05:01:12;;;;;;;33.13;21.15;;;22.50;99.90;;;;;;5036770;28;20110;-72
2021/12/03 05:03:39;;;;;;;35.92;23.30;;;22.30;99.90;;;;;;5036632;28;20032;-73
2021/12/03 05:06:09;;;;;;;35.50;20.92;;;22.30;99.90;;;;;;5036954;28;20026;-74
2021/12/03 05:08:37;;;;;;;32.15;20.60;;;22.30;99.90;;;;;;5035985;28;20112;-71
2021/12/03 05:11:04;;;;;;;35.63;22.23;;;22.20;99.90;;;;;;5036876;28;20025;-74
2021/12/03 05:13:35;;;;;;;37.63;21.35;;;22.40;99.90;;;;;;5035519;28;20021;-74
2021/12/03 05:16:03;;;;;;;35.05;20.70;;;22.40;99.90;;;;;;5035624;28;20060;-71
2021/12/03 05:18:32;;;;;;;37.08;20.77;;;22.40;99.90;;;;;;5035399;28;20033;-72
2021/12/03 05:21:03;;;;;;;32.80;20.05;;;22.40;99.90;;;;;;5036376;28;20026;-71
2021/12/03 05:23:32;;;;;;;34.03;19.65;;;22.40;99.90;;;;;;5036618;28;20034;-72
2021/12/03 05:26:01;;;;;;;35.47;19.23;;;22.40;99.90;;;;;;5034793;28;20029;-72
2021/12/03 05:28:29;;;;;;;33.75;20.80;;;22.20;99.90;;;;;;5036087;28;20044;-71
2021/12/03 05:30:57;;;;;;;32.38;20.38;;;22.20;99.90;;;;;;5034957;28;20053;-71
2021/12/03 05:33:24;;;;;;;30.83;20.33;;;22.10;99.90;;;;;;5034585;28;20087;-72
2021/12/03 05:35:51;;;;;;;33.65;20.15;;;22.00;99.90;;;;;;5036346;28;20124;-71
2021/12/03 05:38:19;;;;;;;37.58;21.42;;;22.10;99.90;;;;;;5036283;28;20022;-72
2021/12/03 05:40:46;;;;;;;33.30;21.45;;;22.30;99.90;;;;;;5034979;28;20075;-72
2021/12/03 05:43:13;;;;;;;37.45;23.00;;;22.30;99.90;;;;;;5035826;28;20042;-71
2021/12/03 05:45:41;;;;;;;33.95;22.70;;;22.20;99.90;;;;;;5034590;28;20033;-73
2021/12/03 05:48:08;;;;;;;29.88;21.67;;;22.20;99.90;;;;;;5035009;28;20033;-72
2021/12/03 05:50:36;;;;;;;30.42;20.75;;;22.20;99.90;;;;;;5034748;28;20021;-73
2021/12/03 05:53:04;;;;;;;36.35;20.85;;;22.00;99.90;;;;;;5034769;28;20033;-72
2021/12/03 05:55:31;;;;;;;32.20;19.50;;;22.00;99.90;;;;;;5034819;28;20029;-72
2021/12/03 05:57:59;;;;;;;31.80;19.08;;;22.00;99.90;;;;;;5034365;28;20029;-71
2021/12/03 06:00:35;;;;;;;31.17;18.83;;;21.90;99.90;;;;;;5035557;28;20033;-72
2021/12/03 06:03:03;;;;;;;31.77;19.52;;;21.70;99.90;;;;;;5034707;28;20504;-71
2021/12/03 06:05:32;;;;;;;30.83;19.25;;;21.80;99.90;;;;;;5034153;28;20029;-70
2021/12/03 06:07:59;;;;;;;32.97;19.25;;;22.00;99.90;;;;;;5034604;28;20047;-71
2021/12/03 06:10:27;;;;;;;37.95;19.10;;;21.90;99.90;;;;;;5033782;28;20018;-72
2021/12/03 06:12:56;;;;;;;35.88;20.70;;;22.00;99.90;;;;;;5034181;28;20052;-71
2021/12/03 06:15:23;;;;;;;33.65;19.65;;;22.00;99.90;;;;;;5035707;28;20018;-71
2021/12/03 06:17:51;;;;;;;34.47;18.90;;;21.80;99.90;;;;;;5035591;28;20021;-72
2021/12/03 06:20:19;;;;;;;39.88;19.25;;;21.80;99.90;;;;;;5034459;28;20045;-71
2021/12/03 06:22:47;;;;;;;30.73;18.30;;;21.70;99.90;;;;;;5034839;28;20024;-71
2021/12/03 06:25:16;;;;;;;40.88;19.38;;;21.60;99.90;;;;;;5033499;28;20064;-71
2021/12/03 06:27:44;;;;;;;40.38;19.52;;;21.50;99.90;;;;;;5035175;28;20075;-73
2021/12/03 06:30:20;;;;;;;38.45;20.25;;;21.50;99.90;;;;;;5035425;28;20482;-72
2021/12/03 06:32:48;;;;;;;32.70;18.75;;;21.40;99.90;;;;;;5034018;28;20029;-73
2021/12/03 06:35:17;;;;;;;62.10;30.35;;;21.40;99.90;;;;;;5034777;28;20033;-72
2021/12/03 06:37:45;;;;;;;32.65;20.10;;;21.40;99.90;;;;;;5033466;28;20025;-72
2021/12/03 06:40:16;;;;;;;39.55;22.42;;;21.10;99.90;;;;;;5035132;28;20026;-73
2021/12/03 06:42:43;;;;;;;43.50;21.83;;;21.10;99.90;;;;;;5034717;28;20108;-73
2021/12/03 06:45:13;;;;;;;44.67;22.05;;;21.10;99.90;;;;;;5033440;28;20033;-73
2021/12/03 06:47:40;;;;;;;33.13;20.50;;;21.00;99.90;;;;;;5033838;28;20041;-72
2021/12/03 06:50:09;;;;;;;36.40;22.05;;;21.20;99.90;;;;;;5033961;28;20367;-73
2021/12/03 06:52:40;;;;;;;33.28;20.42;;;21.10;99.90;;;;;;5033705;28;20099;-72
2021/12/03 06:55:11;;;;;;;33.17;19.80;;;21.00;99.90;;;;;;5033696;28;20026;-72
2021/12/03 06:57:41;;;;;;;35.72;20.77;;;21.10;99.90;;;;;;5034721;28;20030;-73
2021/12/03 07:00:10;;;;;;;30.65;19.23;;;20.90;99.90;;;;;;5033465;28;20120;-73
2021/12/03 07:02:37;;;;;;;30.67;19.40;;;20.90;99.90;;;;;;5033314;28;20061;-72
2021/12/03 07:05:06;;;;;;;30.33;21.13;;;20.90;99.90;;;;;;5034730;28;20032;-73
2021/12/03 07:07:34;;;;;;;34.15;21.77;;;21.20;99.90;;;;;;5033467;28;20036;-72
2021/12/03 07:10:03;;;;;;;32.80;20.25;;;21.30;99.90;;;;;;5034610;28;20032;-73
2021/12/03 07:12:30;;;;;;;33.53;20.83;;;21.20;99.90;;;;;;5033800;28;20383;-73
2021/12/03 07:14:58;;;;;;;33.20;20.63;;;21.20;99.90;;;;;;5034485;28;20029;-73
2021/12/03 07:17:30;;;;;;;25.27;19.95;;;21.20;99.90;;;;;;5034873;28;20021;-73
2021/12/03 07:19:58;;;;;;;30.52;20.27;;;20.90;99.90;;;;;;5033832;28;20025;-74
2021/12/03 07:22:26;;;;;;;29.42;20.45;;;20.90;99.90;;;;;;5034901;28;20022;-71
2021/12/03 07:24:53;;;;;;;26.67;19.92;;;20.90;99.90;;;;;;5034389;28;20018;-72
2021/12/03 07:27:21;;;;;;;37.58;20.67;;;21.00;99.90;;;;;;5034773;28;20478;-72
2021/12/03 07:29:49;;;;;;;33.95;20.10;;;20.80;99.90;;;;;;5033100;28;20394;-72
2021/12/03 07:32:18;;;;;;;34.47;20.45;;;20.70;99.90;;;;;;5033023;28;20025;-72
2021/12/03 07:34:46;;;;;;;31.08;20.25;;;20.70;99.90;;;;;;5033057;28;20116;-72
2021/12/03 07:37:14;;;;;;;31.20;20.95;;;20.70;99.90;;;;;;5034420;28;20151;-73
2021/12/03 07:39:41;;;;;;;36.38;22.27;;;20.70;99.90;;;;;;5033161;28;20530;-73
2021/12/03 07:42:09;;;;;;;27.48;20.80;;;20.60;99.90;;;;;;5033864;28;20041;-73
2021/12/03 07:44:36;;;;;;;33.42;21.80;;;20.50;99.90;;;;;;5033111;28;20059;-73
2021/12/03 07:47:04;;;;;;;37.60;23.23;;;20.40;99.90;;;;;;5032955;28;20500;-73
2021/12/03 07:49:31;;;;;;;27.05;21.92;;;20.40;99.90;;;;;;5033846;28;20022;-72
2021/12/03 07:51:59;;;;;;;35.38;23.23;;;20.40;99.90;;;;;;5033945;28;20014;-73
2021/12/03 07:54:26;;;;;;;34.95;25.17;;;20.40;99.90;;;;;;5032746;28;20025;-73
2021/12/03 07:56:53;;;;;;;35.45;24.85;;;20.40;99.90;;;;;;5033327;28;20026;-73
2021/12/03 07:59:21;;;;;;;31.45;24.80;;;20.30;99.90;;;;;;5033920;28;20072;-73
2021/12/03 08:01:48;;;;;;;32.00;24.13;;;20.30;99.90;;;;;;5033948;28;20032;-73
2021/12/03 08:04:16;;;;;;;33.70;25.30;;;20.10;99.90;;;;;;5034033;28;20592;-73
2021/12/03 08:06:45;;;;;;;32.40;26.98;;;20.00;99.90;;;;;;5032672;28;20140;-73
2021/12/03 08:09:12;;;;;;;36.25;26.15;;;20.00;99.90;;;;;;5032668;28;20056;-73
2021/12/03 08:11:40;;;;;;;32.40;27.60;;;19.90;99.90;;;;;;5032527;28;20021;-74
2021/12/03 08:14:07;;;;;;;32.67;27.27;;;19.90;99.90;;;;;;5033923;28;20028;-75
2021/12/03 08:16:35;;;;;;;33.95;27.48;;;19.70;99.90;;;;;;5034105;28;20018;-75
2021/12/03 08:19:02;;;;;;;32.97;27.30;;;19.80;99.90;;;;;;5032522;28;20038;-75
2021/12/03 08:21:30;;;;;;;32.78;27.60;;;19.70;99.90;;;;;;5032865;28;20029;-75
2021/12/03 08:23:57;;;;;;;31.85;28.45;;;19.70;99.90;;;;;;5032566;28;20025;-74
2021/12/03 08:26:25;;;;;;;35.13;27.10;;;19.60;99.90;;;;;;5036430;28;20033;-75
2021/12/03 08:28:52;;;;;;;30.33;27.13;;;19.70;99.90;;;;;;5037987;28;20022;-74
2021/12/03 08:31:20;;;;;;;30.15;26.95;;;19.60;99.90;;;;;;5036568;28;20049;-74
2021/12/03 08:33:48;;;;;;;33.22;28.10;;;19.40;99.90;;;;;;5036499;28;20025;-76
2021/12/03 08:36:16;;;;;;;32.60;28.45;;;19.40;99.90;;;;;;5037740;28;20057;-73
2021/12/03 08:38:46;;;;;;;31.38;28.10;;;19.30;99.90;;;;;;5036183;28;20033;-75
2021/12/03 08:41:17;;;;;;;34.37;30.83;;;19.30;99.90;;;;;;5037156;28;20442;-74
2021/12/03 08:43:46;;;;;;;32.70;29.60;;;19.20;99.90;;;;;;5036249;28;20041;-75
2021/12/03 08:46:36;;;;;;;31.38;28.08;;;19.30;99.90;;;;;;5038055;28;20112;-75
2021/12/03 08:49:48;;;;;;;35.30;30.02;;;19.20;99.90;;;;;;5038877;28;20037;-75
2021/12/03 08:54:55;;;;;;;31.08;28.23;;;19.00;99.90;;;;;;5046282;28;20042;-73
2021/12/03 08:57:32;;;;;;;32.97;29.58;;;19.00;99.90;;;;;;5036673;28;20402;-77
2021/12/03 09:00:13;;;;;;;30.15;27.17;;;18.90;99.90;;;;;;5037286;28;20033;-73
2021/12/03 09:02:42;;;;;;;29.80;27.10;;;18.90;99.90;;;;;;5036660;28;20482;-74
2021/12/03 09:05:10;;;;;;;34.95;28.67;;;18.80;99.90;;;;;;5037594;28;20096;-74
2021/12/03 09:07:38;;;;;;;31.15;27.60;;;18.80;99.90;;;;;;5035973;28;20029;-74
2021/12/03 09:10:11;;;;;;;32.35;28.90;;;18.80;99.90;;;;;;5037247;28;20076;-72
2021/12/03 09:12:38;;;;;;;35.58;28.83;;;18.80;99.90;;;;;;5035866;28;20026;-74
2021/12/03 09:15:11;;;;;;;32.65;28.98;;;18.80;99.90;;;;;;5036145;28;20502;-72
2021/12/03 09:18:11;;;;;;;33.40;30.00;;;18.70;99.90;;;;;;5037171;28;20032;-75
2021/12/03 09:26:24;;;;;;;36.47;30.95;;;18.70;99.90;;;;;;5064638;28;20028;-74
2021/12/03 09:29:00;;;;;;;38.80;29.38;;;18.70;99.90;;;;;;5043523;28;20029;-72
2021/12/03 09:31:28;;;;;;;32.92;29.48;;;18.60;99.90;;;;;;5035877;28;20032;-72
2021/12/03 09:33:57;;;;;;;32.83;29.65;;;18.70;99.90;;;;;;5035496;28;20075;-72
2021/12/03 09:36:25;;;;;;;35.95;29.73;;;18.70;99.90;;;;;;5037429;28;20053;-72
2021/12/03 09:38:52;;;;;;;31.75;27.63;;;18.80;99.90;;;;;;5035704;28;20128;-74
2021/12/03 09:41:21;;;;;;;34.25;28.38;;;18.80;99.90;;;;;;5037213;28;20018;-74
2021/12/03 09:43:52;;;;;;;31.25;28.20;;;18.80;99.90;;;;;;5037172;28;20045;-73
2021/12/03 09:46:27;;;;;;;36.38;28.60;;;18.70;99.90;;;;;;5035657;28;20021;-73
2021/12/03 09:49:21;;;;;;;31.77;27.67;;;18.80;99.90;;;;;;5035584;28;20041;-73
2021/12/03 09:56:51;;;;;;;34.58;27.75;;;18.80;99.90;;;;;;5035531;28;20108;-74
2021/12/03 10:02:23;;;;;;;34.13;28.45;;;18.90;99.90;;;;;;5037028;28;19924;-73
2021/12/03 10:13:37;;;;;;;30.95;27.80;;;18.70;99.90;;;;;;5036951;28;20101;-74
2021/12/03 10:25:02;;;;;;;34.05;27.15;;;18.90;99.90;;;;;;5036958;28;20386;-73
2021/12/03 10:30:53;;;;;;;30.95;26.40;;;18.90;99.90;;;;;;5036687;28;20036;-73
2021/12/03 10:33:46;;;;;;;31.20;26.52;;;18.90;99.90;;;;;;5034895;28;20021;-73
2021/12/03 10:45:18;;;;;;;;;;;19.00;99.90;;;;;;5036479;28;20108;-73
2021/12/03 10:50:40;;;;;;;37.38;33.97;;;19.00;99.90;;;;;;5036431;28;20437;-73
2021/12/03 10:53:32;;;;;;;38.17;33.35;;;19.00;99.90;;;;;;5035759;28;20075;-74
2021/12/03 10:56:22;;;;;;;36.08;32.40;;;19.10;99.90;;;;;;5034380;28;20068;-74
2021/12/03 11:16:59;;;;;;;34.17;30.67;;;19.30;99.90;;;;;;5035287;28;20079;-73
2021/12/03 11:25:26;;;;;;;36.00;32.40;;;19.30;99.90;;;;;;5035354;28;20037;-74
2021/12/03 11:36:20;;;;;;;31.17;28.38;;;19.30;99.90;;;;;;5035468;28;20394;-73
2021/12/03 12:05:11;;;;;;;31.20;28.65;;;19.10;99.90;;;;;;5043176;28;20029;-72
2021/12/03 12:23:34;;;;;;;32.35;29.70;;;18.90;99.90;;;;;;5033858;28;20029;-74
2021/12/03 12:39:12;;;;;;;31.85;29.05;;;18.90;99.90;;;;;;5033577;28;20025;-74
2021/12/03 13:09:21;;;;;;;28.80;26.55;;;18.90;99.90;;;;;;5033773;28;20111;-73
2021/12/03 13:28:41;;;;;;;32.13;29.60;;;19.00;99.90;;;;;;5046228;28;20513;-74
2021/12/03 13:44:11;;;;;;;32.15;29.35;;;18.90;99.90;;;;;;5036060;28;20103;-73
2021/12/03 13:59:34;;;;;;;33.35;30.65;;;18.80;99.90;;;;;;5036313;28;20052;-73
2021/12/03 14:19:28;;;;;;;34.40;31.25;;;18.70;99.90;;;;;;5036321;28;20025;-74
2021/12/03 14:43:36;;;;;;;35.80;30.95;;;18.60;99.90;;;;;;5035586;28;20052;-74
2021/12/03 14:46:11;;;;;;;34.70;31.40;;;18.70;99.90;;;;;;5034617;28;20479;-74
2021/12/03 14:51:48;;;;;;;34.70;30.42;;;18.70;99.90;;;;;;5035104;28;20017;-74
2021/12/03 14:54:35;;;;;;;33.80;30.67;;;18.60;99.90;;;;;;5033992;28;20329;-73
2021/12/03 14:57:10;;;;;;;35.13;31.60;;;18.60;99.90;;;;;;5034230;28;20489;-74
2021/12/03 14:59:43;;;;;;;34.75;31.40;;;18.60;99.90;;;;;;5035612;28;20029;-74
2021/12/03 15:08:09;;;;;;;36.40;33.08;;;18.70;99.90;;;;;;5035024;28;20092;-74
2021/12/03 15:10:25;;;;;;;34.92;31.63;;;18.70;99.90;;;;;;5034079;28;20033;-73
2021/12/03 15:16:31;;;;;;;35.15;31.55;;;18.70;99.90;;;;;;5035062;28;20029;-74
2021/12/03 15:32:10;;;;;;;35.03;31.38;;;18.80;99.90;;;;;;5034937;28;20024;-74
2021/12/03 15:35:03;;;;;;;35.60;32.10;;;18.80;99.90;;;;;;5034714;28;20022;-73
2021/12/03 15:37:54;;;;;;;35.92;32.60;;;18.80;99.90;;;;;;5034755;28;20032;-73
2021/12/03 15:41:01;;;;;;;35.33;32.13;;;18.70;99.90;;;;;;5034760;28;20029;-74
2021/12/03 15:57:13;;;;;;;33.15;30.27;;;18.70;99.90;;;;;;5034219;28;20025;-73
2021/12/03 16:14:07;;;;;;;33.72;30.42;;;18.70;99.90;;;;;;5033151;28;20025;-74
2021/12/03 16:16:44;;;;;;;35.38;31.85;;;18.70;99.90;;;;;;5033529;28;20043;-73
2021/12/03 16:19:22;;;;;;;32.92;28.08;;;18.70;99.90;;;;;;5033406;28;20026;-74
2021/12/03 16:25:09;;;;;;;33.60;27.42;;;18.60;99.90;;;;;;5034473;28;20025;-74
2021/12/03 16:54:23;;;;;;;36.92;33.20;;;18.60;99.90;;;;;;5037646;28;20101;-74
2021/12/03 16:56:50;;;;;;;36.10;32.50;;;18.60;99.90;;;;;;5037554;28;20038;-74
2021/12/03 16:59:18;;;;;;;36.95;33.35;;;18.60;99.90;;;;;;5036334;28;20026;-74
2021/12/03 17:01:51;;;;;;;34.88;31.73;;;18.50;99.90;;;;;;5037729;28;20389;-74
2021/12/03 17:04:49;;;;;;;37.33;33.58;;;18.50;99.90;;;;;;5036202;28;20025;-74
2021/12/03 17:56:35;;;;;;;34.97;31.92;;;18.60;99.90;;;;;;5036328;28;20053;-74
2021/12/03 17:59:12;;;;;;;35.47;31.95;;;18.60;99.90;;;;;;5035078;28;20518;-73
2021/12/03 18:04:38;;;;;;;36.88;33.00;;;18.60;99.90;;;;;;5036146;28;20490;-73
2021/12/03 18:07:23;;;;;;;35.50;32.17;;;18.60;99.90;;;;;;5036016;28;20474;-74
2021/12/03 18:48:26;;;;;;;33.72;30.83;;;18.40;99.90;;;;;;5034535;28;20029;-73
2021/12/03 18:51:13;;;;;;;32.33;30.15;;;18.50;99.90;;;;;;5034297;28;20025;-72
2021/12/03 18:56:17;;;;;;;34.78;32.15;;;18.60;99.90;;;;;;5034379;28;20021;-73
2021/12/03 18:58:50;;;;;;;34.55;32.25;;;18.50;99.90;;;;;;5034354;28;20052;-72
2021/12/03 19:01:18;;;;;;;33.72;31.23;;;18.60;99.90;;;;;;5034397;28;20044;-73
2021/12/03 19:06:26;;;;;;;33.72;31.33;;;18.60;99.90;;;;;;5034393;28;20032;-73
2021/12/03 19:09:02;;;;;;;33.80;31.10;;;18.50;99.90;;;;;;5032421;28;20053;-73
2021/12/03 19:11:45;;;;;;;34.67;32.00;;;18.60;99.90;;;;;;5034071;28;20029;-73
2021/12/03 19:14:13;;;;;;;32.78;30.25;;;18.60;99.90;;;;;;5034109;28;20467;-74
2021/12/03 19:16:40;;;;;;;33.38;31.08;;;18.60;99.90;;;;;;5032702;28;20541;-73
2021/12/03 19:19:09;;;;;;;32.70;30.08;;;18.50;99.90;;;;;;5033900;28;20029;-73
2021/12/03 19:21:39;;;;;;;32.90;30.80;;;18.60;99.90;;;;;;5033866;28;20105;-73
2021/12/03 19:24:07;;;;;;;;;;;18.70;99.90;;;;;;5033222;28;20025;-72
2021/12/03 19:26:42;;;;;;;33.55;31.33;;;18.50;99.90;;;;;;5032373;28;19909;-73
2021/12/03 19:29:15;;;;;;;33.72;31.63;;;18.60;99.90;;;;;;5032754;28;20022;-73
2021/12/03 19:31:44;;;;;;;34.75;32.50;;;18.60;99.90;;;;;;5032394;28;20025;-73
2021/12/03 19:34:12;;;;;;;35.03;32.38;;;18.70;99.90;;;;;;5033572;28;20026;-73
2021/12/03 19:36:42;;;;;;;33.30;31.00;;;18.60;99.90;;;;;;5032387;28;20036;-72
2021/12/03 19:39:10;;;;;;;;;;;18.60;99.90;;;;;;5032787;28;20052;-73
2021/12/03 19:41:52;;;;;;;32.90;30.85;;;18.50;99.90;;;;;;5032093;28;19909;-74
2021/12/03 19:44:23;;;;;;;33.00;31.00;;;18.50;99.90;;;;;;5032107;28;20053;-73
2021/12/03 19:46:52;;;;;;;32.63;30.80;;;18.50;99.90;;;;;;5032113;28;20060;-73
2021/12/03 19:52:00;;;;;;;33.80;32.03;;;18.40;99.90;;;;;;5033572;28;20025;-74
2021/12/03 19:54:28;;;;;;;34.25;32.35;;;18.40;99.90;;;;;;5032245;28;20522;-74